createdAt,value
2019-01-14T00:01:06.784Z,93951
2019-01-14T00:02:16.396Z,93954
2019-01-14T00:03:26.049Z,93950
2019-01-14T00:04:35.671Z,93940
2019-01-14T00:05:45.362Z,93948
2019-01-14T00:06:55.077Z,93958
2019-01-14T00:08:04.707Z,93951
2019-01-14T00:09:14.260Z,93928
2019-01-14T00:10:24.778Z,93926
2019-01-14T00:11:34.331Z,93923
2019-01-14T00:12:43.860Z,93924
2019-01-14T00:13:53.383Z,93925
2019-01-14T00:15:02.945Z,93929
2019-01-14T00:16:12.496Z,93928
2019-01-14T00:17:22.043Z,93919
2019-01-14T00:18:31.616Z,93928
2019-01-14T00:19:41.160Z,93927
2019-01-14T00:20:50.712Z,93947
2019-01-14T00:22:00.263Z,93934
2019-01-14T00:23:09.800Z,93936
2019-01-14T00:24:19.322Z,93931
2019-01-14T00:25:28.843Z,93944
2019-01-14T00:26:38.400Z,93924
2019-01-14T00:27:47.967Z,93939
2019-01-14T00:28:57.486Z,93935
2019-01-14T00:30:07.098Z,93931
2019-01-14T00:31:16.633Z,93936
2019-01-14T00:32:26.190Z,93925
2019-01-14T00:33:35.726Z,93929
2019-01-14T00:34:45.266Z,93931
2019-01-14T00:35:54.843Z,93920
2019-01-14T00:37:04.480Z,93916
2019-01-14T00:38:14.047Z,93905
2019-01-14T00:39:23.605Z,93920
2019-01-14T00:40:34.106Z,93944
2019-01-14T00:41:43.634Z,93915
2019-01-14T00:42:53.176Z,93928
2019-01-14T00:44:02.712Z,93934
2019-01-14T00:45:12.234Z,93941
2019-01-14T00:46:21.766Z,93945
2019-01-14T00:47:31.303Z,93935
2019-01-14T00:48:40.825Z,93944
2019-01-14T00:49:50.377Z,93945
2019-01-14T00:50:59.945Z,93951
2019-01-14T00:52:09.505Z,93970
2019-01-14T00:53:19.041Z,93963
2019-01-14T00:54:28.575Z,93960
2019-01-14T00:55:38.107Z,93972
2019-01-14T00:56:47.689Z,93969
2019-01-14T00:57:57.262Z,93990
2019-01-14T00:59:06.805Z,93971
2019-01-14T01:00:16.336Z,93987
2019-01-14T01:01:25.859Z,94003
2019-01-14T01:02:35.419Z,94012
2019-01-14T01:03:44.951Z,94012
2019-01-14T01:04:54.515Z,94014
2019-01-14T01:06:04.064Z,94016
2019-01-14T01:07:13.643Z,94030
2019-01-14T01:08:23.234Z,94018
2019-01-14T01:09:32.789Z,94025
2019-01-14T01:10:42.392Z,94023
2019-01-14T01:11:51.945Z,94032
2019-01-14T01:13:01.587Z,94027
2019-01-14T01:14:11.147Z,94029
2019-01-14T01:15:20.683Z,94023
2019-01-14T01:16:30.217Z,94020
2019-01-14T01:17:39.769Z,94017
2019-01-14T01:18:49.307Z,94022
2019-01-14T01:19:58.883Z,94017
2019-01-14T01:21:08.426Z,94006
2019-01-14T01:22:18.014Z,94006
2019-01-14T01:23:27.604Z,94009
2019-01-14T01:24:37.175Z,94014
2019-01-14T01:25:46.803Z,94006
2019-01-14T01:26:56.305Z,94011
2019-01-14T01:28:05.888Z,94016
2019-01-14T01:29:15.410Z,94013
2019-01-14T01:30:24.961Z,94023
2019-01-14T01:31:34.507Z,94026
2019-01-14T01:32:44.072Z,94026
2019-01-14T01:33:53.625Z,94039
2019-01-14T01:35:03.146Z,94038
2019-01-14T01:36:12.693Z,94038
2019-01-14T01:37:22.270Z,94042
2019-01-14T01:38:31.816Z,94051
2019-01-14T01:39:41.368Z,94033
2019-01-14T01:40:50.949Z,94039
2019-01-14T01:42:00.525Z,94030
2019-01-14T01:43:10.062Z,94048
2019-01-14T01:44:19.607Z,94045
2019-01-14T01:45:29.141Z,94055
2019-01-14T01:46:38.664Z,94065
2019-01-14T01:47:48.257Z,94072
2019-01-14T01:48:57.843Z,94054
2019-01-14T01:50:07.392Z,94058
2019-01-14T01:51:16.932Z,94057
2019-01-14T01:52:26.494Z,94051
2019-01-14T01:53:36.053Z,94063
2019-01-14T01:54:45.609Z,94058
2019-01-14T01:55:55.134Z,94082
2019-01-14T01:57:05.652Z,94060
2019-01-14T01:58:15.239Z,94063
2019-01-14T01:59:24.810Z,94078
2019-01-14T02:00:34.397Z,94073
2019-01-14T02:01:43.967Z,94067
2019-01-14T02:02:53.545Z,94075
2019-01-14T02:04:03.100Z,94080
2019-01-14T02:05:12.676Z,94081
2019-01-14T02:06:22.208Z,94076
2019-01-14T02:07:31.804Z,94081
2019-01-14T02:08:41.449Z,94084
2019-01-14T02:09:50.990Z,94091
2019-01-14T02:11:00.546Z,94103
2019-01-14T02:12:10.140Z,94106
2019-01-14T02:13:19.679Z,94111
2019-01-14T02:14:29.199Z,94106
2019-01-14T02:15:38.727Z,94108
2019-01-14T02:16:48.253Z,94115
2019-01-14T02:17:57.812Z,94110
2019-01-14T02:19:07.373Z,94108
2019-01-14T02:20:16.979Z,94121
2019-01-14T02:21:26.467Z,94127
2019-01-14T02:22:36.028Z,94134
2019-01-14T02:23:45.591Z,94127
2019-01-14T02:24:55.125Z,94132
2019-01-14T02:26:04.651Z,94129
2019-01-14T02:27:14.231Z,94134
2019-01-14T02:28:23.804Z,94132
2019-01-14T02:29:33.325Z,94141
2019-01-14T02:30:42.878Z,94139
2019-01-14T02:31:52.416Z,94129
2019-01-14T02:33:01.985Z,94132
2019-01-14T02:34:11.534Z,94135
2019-01-14T02:35:21.070Z,94138
2019-01-14T02:36:30.621Z,94138
2019-01-14T02:37:40.175Z,94150
2019-01-14T02:38:49.718Z,94145
2019-01-14T02:39:59.253Z,94144
2019-01-14T02:41:08.783Z,94147
2019-01-14T02:42:18.328Z,94145
2019-01-14T02:43:27.897Z,94150
2019-01-14T02:44:37.451Z,94148
2019-01-14T02:45:47.972Z,94148
2019-01-14T02:46:57.517Z,94147
2019-01-14T02:48:07.048Z,94140
2019-01-14T02:49:16.616Z,94146
2019-01-14T02:50:26.175Z,94136
2019-01-14T02:51:35.721Z,94138
2019-01-14T02:52:45.249Z,94140
2019-01-14T02:53:54.804Z,94138
2019-01-14T02:55:04.384Z,94138
2019-01-14T02:56:13.939Z,94132
2019-01-14T02:57:23.471Z,94141
2019-01-14T02:58:33.067Z,94148
2019-01-14T02:59:42.597Z,94153
2019-01-14T03:00:52.141Z,94153
2019-01-14T03:02:01.707Z,94149
2019-01-14T03:03:11.317Z,94152
2019-01-14T03:04:20.897Z,94159
2019-01-14T03:05:30.450Z,94153
2019-01-14T03:06:40.081Z,94158
2019-01-14T03:07:49.667Z,94164
2019-01-14T03:08:59.239Z,94163
2019-01-14T03:10:08.787Z,94162
2019-01-14T03:11:18.388Z,94172
2019-01-14T03:12:28.002Z,94171
2019-01-14T03:13:37.635Z,94172
2019-01-14T03:14:47.234Z,94173
2019-01-14T03:15:56.843Z,94169
2019-01-14T03:17:06.404Z,94170
2019-01-14T03:18:15.997Z,94165
2019-01-14T03:19:25.584Z,94175
2019-01-14T03:20:35.132Z,94175
2019-01-14T03:21:44.738Z,94176
2019-01-14T03:22:54.376Z,94177
2019-01-14T03:24:03.999Z,94171
2019-01-14T03:25:13.536Z,94183
2019-01-14T03:26:23.077Z,94184
2019-01-14T03:27:32.599Z,94182
2019-01-14T03:28:42.178Z,94182
2019-01-14T03:29:51.861Z,94185
2019-01-14T03:31:01.460Z,94192
2019-01-14T03:32:11.086Z,94188
2019-01-14T03:33:20.639Z,94193
2019-01-14T03:34:30.257Z,94187
2019-01-14T03:35:39.894Z,94182
2019-01-14T03:36:49.448Z,94183
2019-01-14T03:37:59.105Z,94194
2019-01-14T03:39:08.592Z,94185
2019-01-14T03:40:18.145Z,94190
2019-01-14T03:41:27.724Z,94193
2019-01-14T03:42:37.329Z,94200
2019-01-14T03:43:46.893Z,94196
2019-01-14T03:44:56.436Z,94200
2019-01-14T03:46:06.011Z,94203
2019-01-14T03:47:15.597Z,94209
2019-01-14T03:48:25.199Z,94207
2019-01-14T03:49:34.794Z,94208
2019-01-14T03:50:44.421Z,94209
2019-01-14T03:51:54.017Z,94209
2019-01-14T03:53:03.605Z,94209
2019-01-14T03:54:13.224Z,94211
2019-01-14T03:55:22.823Z,94216
2019-01-14T03:56:32.413Z,94216
2019-01-14T03:57:42.016Z,94214
2019-01-14T03:58:51.694Z,94230
2019-01-14T04:00:01.320Z,94229
2019-01-14T04:01:10.946Z,94229
2019-01-14T04:02:20.681Z,94226
2019-01-14T04:03:30.268Z,94234
2019-01-14T04:04:39.920Z,94217
2019-01-14T04:05:49.536Z,94228
2019-01-14T04:06:59.121Z,94230
2019-01-14T04:08:09.697Z,94231
2019-01-14T04:09:19.278Z,94235
2019-01-14T04:10:28.883Z,94231
2019-01-14T04:11:38.455Z,94239
2019-01-14T04:12:48.051Z,94244
2019-01-14T04:13:57.602Z,94243
2019-01-14T04:15:07.186Z,94258
2019-01-14T04:16:16.754Z,94245
2019-01-14T04:17:26.306Z,94249
2019-01-14T04:18:35.895Z,94248
2019-01-14T04:19:45.551Z,94250
2019-01-14T04:20:55.114Z,94258
2019-01-14T04:22:04.731Z,94262
2019-01-14T04:23:14.284Z,94255
2019-01-14T04:24:23.878Z,94258
2019-01-14T04:25:33.482Z,94255
2019-01-14T04:26:43.094Z,94262
2019-01-14T04:27:52.645Z,94259
2019-01-14T04:29:02.210Z,94260
2019-01-14T04:30:11.795Z,94265
2019-01-14T04:31:21.385Z,94264
2019-01-14T04:32:30.953Z,94271
2019-01-14T04:33:39.517Z,94273
2019-01-14T04:34:49.109Z,94271
2019-01-14T04:35:58.692Z,94271
2019-01-14T04:37:08.259Z,94274
2019-01-14T04:38:18.831Z,94288
2019-01-14T04:39:28.416Z,94281
2019-01-14T04:40:38.017Z,94282
2019-01-14T04:41:47.554Z,94276
2019-01-14T04:42:57.119Z,94285
2019-01-14T04:44:06.711Z,94279
2019-01-14T04:45:16.271Z,94276
2019-01-14T04:46:25.835Z,94280
2019-01-14T04:47:35.430Z,94285
2019-01-14T04:48:45.077Z,94288
2019-01-14T04:49:54.577Z,94282
2019-01-14T04:51:04.175Z,94287
2019-01-14T04:52:13.750Z,94295
2019-01-14T04:53:23.277Z,94300
2019-01-14T04:54:32.867Z,94289
2019-01-14T04:55:42.440Z,94305
2019-01-14T04:56:52.040Z,94294
2019-01-14T04:58:01.575Z,94306
2019-01-14T04:59:11.160Z,94312
2019-01-14T05:00:20.746Z,94317
2019-01-14T05:01:30.297Z,94314
2019-01-14T05:02:39.830Z,94310
2019-01-14T05:03:49.335Z,94320
2019-01-14T05:04:58.855Z,94321
2019-01-14T05:06:08.427Z,94315
2019-01-14T05:07:18.012Z,94312
2019-01-14T05:08:28.552Z,94315
2019-01-14T05:09:38.116Z,94321
2019-01-14T05:10:47.695Z,94327
2019-01-14T05:11:57.263Z,94326
2019-01-14T05:13:06.808Z,94333
2019-01-14T05:14:16.358Z,94328
2019-01-14T05:15:26.036Z,94323
2019-01-14T05:16:35.607Z,94332
2019-01-14T05:17:45.165Z,94333
2019-01-14T05:18:54.725Z,94350
2019-01-14T05:20:04.292Z,94340
2019-01-14T05:21:13.846Z,94343
2019-01-14T05:22:23.384Z,94342
2019-01-14T05:23:32.998Z,94339
2019-01-14T05:24:42.543Z,94335
2019-01-14T05:25:52.246Z,94338
2019-01-14T05:27:01.949Z,94334
2019-01-14T05:28:11.417Z,94335
2019-01-14T05:29:20.969Z,94342
2019-01-14T05:30:30.607Z,94343
2019-01-14T05:31:41.920Z,94342
2019-01-14T05:32:49.669Z,94346
2019-01-14T05:33:59.320Z,94347
2019-01-14T05:35:08.844Z,94348
2019-01-14T05:36:18.396Z,94349
2019-01-14T05:37:28.069Z,94351
2019-01-14T05:38:38.646Z,94359
2019-01-14T05:39:48.221Z,94360
2019-01-14T05:40:57.823Z,94355
2019-01-14T05:42:07.422Z,94358
2019-01-14T05:43:16.978Z,94360
2019-01-14T05:44:26.636Z,94354
2019-01-14T05:45:36.360Z,94358
2019-01-14T05:46:45.940Z,94364
2019-01-14T05:47:55.483Z,94356
2019-01-14T05:49:05.035Z,94356
2019-01-14T05:50:14.603Z,94357
2019-01-14T05:51:24.238Z,94364
2019-01-14T05:52:33.917Z,94364
2019-01-14T05:53:43.625Z,94352
2019-01-14T05:54:53.349Z,94366
2019-01-14T05:56:02.992Z,94360
2019-01-14T05:57:12.709Z,94364
2019-01-14T05:58:22.361Z,94350
2019-01-14T05:59:32.090Z,94364
2019-01-14T06:00:41.710Z,94356
2019-01-14T06:01:51.466Z,94356
2019-01-14T06:03:01.188Z,94352
2019-01-14T06:04:10.826Z,94351
2019-01-14T06:05:20.460Z,94355
2019-01-14T06:06:30.043Z,94355
2019-01-14T06:07:44.808Z,94353
2019-01-14T06:08:49.173Z,94351
2019-01-14T06:09:58.722Z,94353
2019-01-14T06:11:08.330Z,94346
2019-01-14T06:12:17.846Z,94354
2019-01-14T06:13:27.421Z,94364
2019-01-14T06:14:36.984Z,94364
2019-01-14T06:15:46.561Z,94367
2019-01-14T06:16:56.132Z,94375
2019-01-14T06:18:05.700Z,94382
2019-01-14T06:19:15.377Z,94386
2019-01-14T06:20:24.933Z,94373
2019-01-14T06:21:34.567Z,94394
2019-01-14T06:22:45.145Z,94390
2019-01-14T06:23:54.705Z,94376
2019-01-14T06:25:03.259Z,94386
2019-01-14T06:26:12.831Z,94375
2019-01-14T06:27:22.342Z,94377
2019-01-14T06:28:31.919Z,94390
2019-01-14T06:29:41.486Z,94381
2019-01-14T06:30:52.107Z,94381
2019-01-14T06:32:01.669Z,94388
2019-01-14T06:33:11.250Z,94389
2019-01-14T06:34:20.821Z,94401
2019-01-14T06:35:30.390Z,94400
2019-01-14T06:36:39.978Z,94393
2019-01-14T06:37:52.391Z,94391
2019-01-14T06:38:59.119Z,94393
2019-01-14T06:40:08.718Z,94399
2019-01-14T06:41:18.300Z,94403
2019-01-14T06:42:27.902Z,94413
2019-01-14T06:43:38.476Z,94408
2019-01-14T06:44:48.017Z,94404
2019-01-14T06:45:57.637Z,94410
2019-01-14T06:47:07.219Z,94419
2019-01-14T06:48:16.776Z,94410
2019-01-14T06:49:26.375Z,94410
2019-01-14T06:50:35.955Z,94411
2019-01-14T06:51:45.555Z,94413
2019-01-14T06:52:55.189Z,94416
2019-01-14T06:54:04.755Z,94416
2019-01-14T06:55:14.312Z,94416
2019-01-14T06:56:23.859Z,94419
2019-01-14T06:57:33.433Z,94434
2019-01-14T06:58:42.984Z,94434
2019-01-14T06:59:52.538Z,94436
2019-01-14T07:01:02.100Z,94446
2019-01-14T07:02:11.645Z,94441
2019-01-14T07:03:21.185Z,94440
2019-01-14T07:04:30.744Z,94445
2019-01-14T07:05:40.267Z,94453
2019-01-14T07:06:49.828Z,94448
2019-01-14T07:08:00.002Z,94456
2019-01-14T07:09:08.930Z,94449
2019-01-14T07:10:18.470Z,94448
2019-01-14T07:11:28.043Z,94451
2019-01-14T07:12:37.586Z,94459
2019-01-14T07:13:47.132Z,94457
2019-01-14T07:14:56.765Z,94462
2019-01-14T07:16:06.308Z,94466
2019-01-14T07:17:15.866Z,94466
2019-01-14T07:18:26.392Z,94468
2019-01-14T07:19:35.929Z,94480
2019-01-14T07:20:45.543Z,94465
2019-01-14T07:21:56.114Z,94473
2019-01-14T07:23:05.700Z,94469
2019-01-14T07:24:15.223Z,94461
2019-01-14T07:25:24.775Z,94466
2019-01-14T07:26:34.340Z,94469
2019-01-14T07:27:42.926Z,94474
2019-01-14T07:28:52.447Z,94496
2019-01-14T07:30:01.964Z,94485
2019-01-14T07:31:11.569Z,94477
2019-01-14T07:32:21.119Z,94482
2019-01-14T07:33:30.684Z,94480
2019-01-14T07:34:40.182Z,94498
2019-01-14T07:35:49.732Z,94493
2019-01-14T07:36:59.313Z,94496
2019-01-14T07:38:08.856Z,94502
2019-01-14T07:39:18.405Z,94495
2019-01-14T07:40:27.977Z,94505
2019-01-14T07:41:37.517Z,94506
2019-01-14T07:42:47.045Z,94518
2019-01-14T07:43:56.584Z,94512
2019-01-14T07:45:06.124Z,94506
2019-01-14T07:46:15.751Z,94515
2019-01-14T07:47:25.412Z,94512
2019-01-14T07:48:34.962Z,94521
2019-01-14T07:49:44.502Z,94522
2019-01-14T07:50:54.036Z,94514
2019-01-14T07:52:03.577Z,94514
2019-01-14T07:53:13.115Z,94526
2019-01-14T07:54:22.649Z,94516
2019-01-14T07:55:32.234Z,94531
2019-01-14T07:56:41.797Z,94528
2019-01-14T07:57:51.364Z,94515
2019-01-14T07:59:00.900Z,94529
2019-01-14T08:00:10.413Z,94530
2019-01-14T08:01:19.956Z,94538
2019-01-14T08:02:29.549Z,94536
2019-01-14T08:03:39.109Z,94539
2019-01-14T08:04:48.667Z,94533
2019-01-14T08:05:58.253Z,94543
2019-01-14T08:07:07.792Z,94543
2019-01-14T08:08:17.435Z,94544
2019-01-14T08:09:27.049Z,94545
2019-01-14T08:10:36.725Z,94555
2019-01-14T08:11:46.492Z,94549
2019-01-14T08:12:56.195Z,94549
2019-01-14T08:14:05.852Z,94549
2019-01-14T08:15:15.541Z,94549
2019-01-14T08:16:25.314Z,94565
2019-01-14T08:17:35.123Z,94566
2019-01-14T08:18:44.893Z,94559
2019-01-14T08:19:54.677Z,94561
2019-01-14T08:21:04.354Z,94583
2019-01-14T08:22:14.042Z,94566
2019-01-14T08:23:23.691Z,94563
2019-01-14T08:24:33.359Z,94571
2019-01-14T08:25:42.998Z,94576
2019-01-14T08:26:52.699Z,94570
2019-01-14T08:28:02.402Z,94581
2019-01-14T08:29:12.118Z,94572
2019-01-14T08:30:21.834Z,94578
2019-01-14T08:31:31.471Z,94580
2019-01-14T08:32:41.133Z,94576
2019-01-14T08:33:50.787Z,94578
2019-01-14T08:35:00.446Z,94587
2019-01-14T08:36:10.171Z,94577
2019-01-14T08:37:19.866Z,94585
2019-01-14T08:38:29.495Z,94585
2019-01-14T08:39:39.144Z,94592
2019-01-14T08:40:48.762Z,94587
2019-01-14T08:41:58.422Z,94588
2019-01-14T08:43:08.080Z,94596
2019-01-14T08:44:17.700Z,94600
2019-01-14T08:45:27.328Z,94600
2019-01-14T08:46:36.950Z,94605
2019-01-14T08:47:46.591Z,94600
2019-01-14T08:48:56.243Z,94603
2019-01-14T08:50:05.841Z,94602
2019-01-14T08:51:15.385Z,94602
2019-01-14T08:52:24.946Z,94600
2019-01-14T08:53:34.487Z,94610
2019-01-14T08:54:45.344Z,94603
2019-01-14T08:55:54.990Z,94614
2019-01-14T08:57:04.553Z,94610
2019-01-14T08:58:14.092Z,94617
2019-01-14T08:59:23.622Z,94613
2019-01-14T09:00:33.166Z,94618
2019-01-14T09:01:42.708Z,94628
2019-01-14T09:02:52.289Z,94618
2019-01-14T09:04:01.836Z,94618
2019-01-14T09:05:12.111Z,94625
2019-01-14T09:06:21.711Z,94615
2019-01-14T09:07:31.245Z,94621
2019-01-14T09:08:40.820Z,94628
2019-01-14T09:09:51.577Z,94625
2019-01-14T09:10:59.917Z,94636
2019-01-14T09:12:09.571Z,94637
2019-01-14T09:13:19.163Z,94632
2019-01-14T09:14:28.742Z,94638
2019-01-14T09:15:38.446Z,94637
2019-01-14T09:16:48.225Z,94631
2019-01-14T09:18:02.739Z,94633
2019-01-14T09:19:09.421Z,94629
2019-01-14T09:20:18.987Z,94636
2019-01-14T09:21:28.591Z,94631
2019-01-14T09:22:38.222Z,94632
2019-01-14T09:23:47.799Z,94626
2019-01-14T09:24:57.350Z,94624
2019-01-14T09:26:06.974Z,94627
2019-01-14T09:27:16.571Z,94630
2019-01-14T09:28:26.278Z,94627
2019-01-14T09:29:35.829Z,94631
2019-01-14T09:30:45.435Z,94634
2019-01-14T09:31:55.008Z,94637
2019-01-14T09:33:04.626Z,94643
2019-01-14T09:34:14.371Z,94644
2019-01-14T09:35:23.941Z,94648
2019-01-14T09:36:33.481Z,94646
2019-01-14T09:37:43.057Z,94641
2019-01-14T09:38:52.593Z,94640
2019-01-14T09:40:02.185Z,94644
2019-01-14T09:41:11.728Z,94648
2019-01-14T09:42:22.242Z,94656
2019-01-14T09:43:32.636Z,94648
2019-01-14T09:44:42.218Z,94644
2019-01-14T09:45:51.839Z,94642
2019-01-14T09:47:01.363Z,94636
2019-01-14T09:48:10.934Z,94670
2019-01-14T09:49:20.467Z,94646
2019-01-14T09:50:30.021Z,94649
2019-01-14T09:51:39.546Z,94639
2019-01-14T09:52:49.115Z,94636
2019-01-14T09:53:59.616Z,94662
2019-01-14T09:55:09.155Z,94640
2019-01-14T09:56:18.716Z,94647
2019-01-14T09:57:28.238Z,94626
2019-01-14T09:58:37.771Z,94673
2019-01-14T09:59:47.321Z,94645
2019-01-14T10:00:56.875Z,94644
2019-01-14T10:02:07.424Z,94649
2019-01-14T10:03:16.947Z,94650
2019-01-14T10:04:26.486Z,94644
2019-01-14T10:05:36.001Z,94645
2019-01-14T10:06:45.537Z,94644
2019-01-14T10:07:55.090Z,94638
2019-01-14T10:09:04.618Z,94651
2019-01-14T10:10:14.142Z,94637
2019-01-14T10:11:23.661Z,94643
2019-01-14T10:12:33.203Z,94635
2019-01-14T10:13:42.801Z,94638
2019-01-14T10:14:52.345Z,94645
2019-01-14T10:16:01.876Z,94642
2019-01-14T10:17:11.403Z,94645
2019-01-14T10:18:20.952Z,94645
2019-01-14T10:19:30.478Z,94646
2019-01-14T10:20:40.011Z,94633
2019-01-14T10:21:49.560Z,94629
2019-01-14T10:22:59.122Z,94636
2019-01-14T10:24:08.643Z,94623
2019-01-14T10:25:18.290Z,94628
2019-01-14T10:26:27.804Z,94640
2019-01-14T10:27:37.335Z,94622
2019-01-14T10:28:46.875Z,94636
2019-01-14T10:29:56.418Z,94626
2019-01-14T10:31:05.946Z,94627
2019-01-14T10:32:15.498Z,94638
2019-01-14T10:33:25.027Z,94632
2019-01-14T10:34:34.613Z,94638
2019-01-14T10:35:44.183Z,94638
2019-01-14T10:36:53.711Z,94636
2019-01-14T10:38:03.254Z,94637
2019-01-14T10:39:12.876Z,94632
2019-01-14T10:40:21.409Z,94640
2019-01-14T10:41:30.947Z,94639
2019-01-14T10:42:40.504Z,94631
2019-01-14T10:43:50.050Z,94633
2019-01-14T10:45:00.572Z,94639
2019-01-14T10:46:10.107Z,94634
2019-01-14T10:47:19.647Z,94629
2019-01-14T10:48:29.220Z,94638
2019-01-14T10:49:38.745Z,94627
2019-01-14T10:50:48.311Z,94630
2019-01-14T10:51:57.862Z,94621
2019-01-14T10:53:07.470Z,94628
2019-01-14T10:54:17.195Z,94636
2019-01-14T10:55:26.608Z,94631
2019-01-14T10:56:36.260Z,94636
2019-01-14T10:57:46.897Z,94630
2019-01-14T10:58:56.534Z,94628
2019-01-14T11:00:06.077Z,94615
2019-01-14T11:01:15.631Z,94622
2019-01-14T11:02:25.167Z,94625
2019-01-14T11:03:34.774Z,94630
2019-01-14T11:04:44.385Z,94626
2019-01-14T11:05:53.905Z,94623
2019-01-14T11:07:03.487Z,94624
2019-01-14T11:08:13.047Z,94628
2019-01-14T11:09:22.741Z,94619
2019-01-14T11:10:32.306Z,94621
2019-01-14T11:11:41.848Z,94625
2019-01-14T11:12:51.407Z,94624
2019-01-14T11:14:00.980Z,94613
2019-01-14T11:15:10.510Z,94618
2019-01-14T11:16:20.091Z,94617
2019-01-14T11:17:29.622Z,94625
2019-01-14T11:18:39.175Z,94619
2019-01-14T11:19:48.741Z,94623
2019-01-14T11:20:59.270Z,94619
2019-01-14T11:22:08.788Z,94611
2019-01-14T11:23:17.313Z,94624
2019-01-14T11:24:26.831Z,94623
2019-01-14T11:25:36.388Z,94624
2019-01-14T11:26:44.905Z,94634
2019-01-14T11:27:55.434Z,94643
2019-01-14T11:29:05.039Z,94612
2019-01-14T11:30:14.498Z,94617
2019-01-14T11:31:24.042Z,94619
2019-01-14T11:32:33.557Z,94618
2019-01-14T11:33:43.095Z,94626
2019-01-14T11:34:52.639Z,94623
2019-01-14T11:36:03.164Z,94616
2019-01-14T11:37:12.716Z,94614
2019-01-14T11:38:22.278Z,94606
2019-01-14T11:39:31.806Z,94606
2019-01-14T11:40:41.370Z,94616
2019-01-14T11:41:50.891Z,94605
2019-01-14T11:43:00.406Z,94601
2019-01-14T11:44:09.953Z,94609
2019-01-14T11:45:19.484Z,94609
2019-01-14T11:46:29.021Z,94608
2019-01-14T11:47:38.786Z,94595
2019-01-14T11:48:48.219Z,94588
2019-01-14T11:49:57.761Z,94609
2019-01-14T11:51:07.298Z,94606
2019-01-14T11:52:16.852Z,94597
2019-01-14T11:53:26.401Z,94601
2019-01-14T11:54:35.934Z,94598
2019-01-14T11:55:45.471Z,94594
2019-01-14T11:56:55.030Z,94594
2019-01-14T11:58:04.568Z,94604
2019-01-14T11:59:14.107Z,94595
2019-01-14T12:00:23.655Z,94597
2019-01-14T12:01:34.205Z,94590
2019-01-14T12:02:43.758Z,94594
2019-01-14T12:03:53.347Z,94592
2019-01-14T12:05:02.951Z,94593
2019-01-14T12:06:12.510Z,94597
2019-01-14T12:07:21.741Z,94588
2019-01-14T12:08:31.325Z,94595
2019-01-14T12:09:40.847Z,94591
2019-01-14T12:10:50.447Z,94589
2019-01-14T12:12:00.033Z,94581
2019-01-14T12:13:09.554Z,94588
2019-01-14T12:14:19.147Z,94584
2019-01-14T12:15:28.733Z,94593
2019-01-14T12:16:38.282Z,94582
2019-01-14T12:17:47.859Z,94588
2019-01-14T12:18:56.418Z,94587
2019-01-14T12:20:05.945Z,94593
2019-01-14T12:21:15.516Z,94577
2019-01-14T12:22:25.064Z,94591
2019-01-14T12:23:34.631Z,94592
2019-01-14T12:24:44.228Z,94589
2019-01-14T12:25:53.805Z,94594
2019-01-14T12:27:04.365Z,94593
2019-01-14T12:28:13.889Z,94588
2019-01-14T12:29:23.456Z,94595
2019-01-14T12:30:33.203Z,94581
2019-01-14T12:31:41.614Z,94592
2019-01-14T12:32:51.185Z,94589
2019-01-14T12:34:00.734Z,94589
2019-01-14T12:35:10.263Z,94589
2019-01-14T12:36:19.794Z,94590
2019-01-14T12:37:29.396Z,94593
2019-01-14T12:38:38.950Z,94582
2019-01-14T12:39:48.524Z,94590
2019-01-14T12:40:58.081Z,94589
2019-01-14T12:42:07.624Z,94590
2019-01-14T12:43:17.519Z,94587
2019-01-14T12:44:27.066Z,94583
2019-01-14T12:45:36.635Z,94591
2019-01-14T12:46:46.155Z,94601
2019-01-14T12:47:55.810Z,94587
2019-01-14T12:49:05.349Z,94591
2019-01-14T12:50:14.892Z,94593
2019-01-14T12:51:24.428Z,94603
2019-01-14T12:52:34.001Z,94591
2019-01-14T12:53:43.591Z,94579
2019-01-14T12:54:53.172Z,94588
2019-01-14T12:56:02.709Z,94583
2019-01-14T12:57:12.264Z,94582
2019-01-14T12:58:21.811Z,94575
2019-01-14T12:59:31.342Z,94570
2019-01-14T13:00:40.880Z,94585
2019-01-14T13:01:50.421Z,94593
2019-01-14T13:02:59.968Z,94579
2019-01-14T13:04:09.496Z,94585
2019-01-14T13:05:19.034Z,94591
2019-01-14T13:06:28.603Z,94590
2019-01-14T13:07:38.141Z,94598
2019-01-14T13:08:47.735Z,94594
2019-01-14T13:09:57.268Z,94578
2019-01-14T13:11:06.801Z,94581
2019-01-14T13:12:16.361Z,94580
2019-01-14T13:13:26.005Z,94599
2019-01-14T13:14:35.544Z,94592
2019-01-14T13:15:45.116Z,94582
2019-01-14T13:16:54.758Z,94592
2019-01-14T13:18:05.506Z,94595
2019-01-14T13:19:14.874Z,94602
2019-01-14T13:20:24.450Z,94595
2019-01-14T13:21:33.975Z,94601
2019-01-14T13:22:43.560Z,94592
2019-01-14T13:23:53.093Z,94595
2019-01-14T13:25:02.657Z,94593
2019-01-14T13:26:12.167Z,94599
2019-01-14T13:27:22.766Z,94598
2019-01-14T13:28:32.315Z,94603
2019-01-14T13:29:41.845Z,94609
2019-01-14T13:30:51.409Z,94603
2019-01-14T13:32:00.947Z,94628
2019-01-14T13:33:10.510Z,94611
2019-01-14T13:34:20.042Z,94605
2019-01-14T13:35:29.595Z,94596
2019-01-14T13:36:39.129Z,94601
2019-01-14T13:37:48.651Z,94595
2019-01-14T13:38:58.164Z,94592
2019-01-14T13:40:07.741Z,94591
2019-01-14T13:41:17.275Z,94607
2019-01-14T13:42:26.796Z,94606
2019-01-14T13:43:36.332Z,94596
2019-01-14T13:44:45.891Z,94612
2019-01-14T13:45:55.466Z,94621
2019-01-14T13:47:05.010Z,94631
2019-01-14T13:48:14.539Z,94632
2019-01-14T13:49:24.110Z,94649
2019-01-14T13:50:33.673Z,94635
2019-01-14T13:51:46.877Z,94645
2019-01-14T13:52:52.766Z,94651
2019-01-14T13:54:02.270Z,94659
2019-01-14T13:55:11.829Z,94669
2019-01-14T13:56:21.365Z,94665
2019-01-14T13:57:30.932Z,94667
2019-01-14T13:58:40.460Z,94671
2019-01-14T13:59:49.995Z,94680
2019-01-14T14:00:59.599Z,94693
2019-01-14T14:02:09.157Z,94685
2019-01-14T14:03:18.723Z,94689
2019-01-14T14:04:28.256Z,94690
2019-01-14T14:05:37.822Z,94690
2019-01-14T14:06:47.357Z,94691
2019-01-14T14:07:56.895Z,94692
2019-01-14T14:09:06.430Z,94697
2019-01-14T14:10:16.018Z,94696
2019-01-14T14:11:25.559Z,94698
2019-01-14T14:12:35.071Z,94695
2019-01-14T14:13:44.607Z,94710
2019-01-14T14:14:54.160Z,94710
2019-01-14T14:16:03.728Z,94713
2019-01-14T14:17:13.255Z,94715
2019-01-14T14:18:22.809Z,94706
2019-01-14T14:19:32.358Z,94712
2019-01-14T14:20:41.917Z,94705
2019-01-14T14:21:51.472Z,94716
2019-01-14T14:23:01.012Z,94718
2019-01-14T14:24:10.524Z,94722
2019-01-14T14:25:20.103Z,94726
2019-01-14T14:26:29.617Z,94731
2019-01-14T14:27:39.147Z,94734
2019-01-14T14:28:48.691Z,94733
2019-01-14T14:29:58.230Z,94730
2019-01-14T14:31:08.814Z,94732
2019-01-14T14:32:17.336Z,94740
2019-01-14T14:33:26.854Z,94754
2019-01-14T14:34:36.410Z,94756
2019-01-14T14:35:45.949Z,94755
2019-01-14T14:36:55.503Z,94760
2019-01-14T14:38:05.038Z,94763
2019-01-14T14:39:14.581Z,94762
2019-01-14T14:40:24.084Z,94766
2019-01-14T14:41:33.626Z,94765
2019-01-14T14:42:43.171Z,94776
2019-01-14T14:43:52.727Z,94769
2019-01-14T14:45:02.291Z,94777
2019-01-14T14:46:11.877Z,94783
2019-01-14T14:47:21.391Z,94780
2019-01-14T14:48:30.925Z,94784
2019-01-14T14:49:40.437Z,94783
2019-01-14T14:50:49.979Z,94781
2019-01-14T14:51:59.489Z,94781
2019-01-14T14:53:09.013Z,94774
2019-01-14T14:54:18.536Z,94770
2019-01-14T14:55:28.045Z,94772
2019-01-14T14:56:37.581Z,94765